sensor_id;sensor_type;location;lat;lon;timestamp;P1;durP1;ratioP1;P2;durP2;ratioP2
23728;SDS011;12045;60.214;24.724;2022-07-24T00:02:26;2.30;;;1.70;;
23728;SDS011;12045;60.214;24.724;2022-07-24T00:04:55;3.40;;;1.80;;
23728;SDS011;12045;60.214;24.724;2022-07-24T00:07:37;2.85;;;1.70;;
23728;SDS011;12045;60.214;24.724;2022-07-24T00:10:08;2.63;;;1.70;;
23728;SDS011;12045;60.214;24.724;2022-07-24T00:12:37;2.35;;;1.80;;
23728;SDS011;12045;60.214;24.724;2022-07-24T00:15:05;1.88;;;1.50;;
23728;SDS011;12045;60.214;24.724;2022-07-24T00:17:33;3.92;;;1.60;;
23728;SDS011;12045;60.214;24.724;2022-07-24T00:20:00;4.32;;;1.90;;
23728;SDS011;12045;60.214;24.724;2022-07-24T00:22:29;3.38;;;1.60;;
23728;SDS011;12045;60.214;24.724;2022-07-24T00:24:57;1.92;;;1.63;;
23728;SDS011;12045;60.214;24.724;2022-07-24T00:27:24;1.77;;;1.65;;
23728;SDS011;12045;60.214;24.724;2022-07-24T00:29:52;1.58;;;1.48;;
23728;SDS011;12045;60.214;24.724;2022-07-24T00:32:20;3.05;;;1.50;;
23728;SDS011;12045;60.214;24.724;2022-07-24T00:34:47;2.40;;;1.45;;
23728;SDS011;12045;60.214;24.724;2022-07-24T00:37:14;3.05;;;1.60;;
23728;SDS011;12045;60.214;24.724;2022-07-24T00:39:44;3.17;;;1.65;;
23728;SDS011;12045;60.214;24.724;2022-07-24T00:42:14;2.80;;;1.70;;
23728;SDS011;12045;60.214;24.724;2022-07-24T00:44:42;5.32;;;2.00;;
23728;SDS011;12045;60.214;24.724;2022-07-24T00:47:09;3.28;;;1.55;;
23728;SDS011;12045;60.214;24.724;2022-07-24T00:49:38;3.30;;;1.83;;
23728;SDS011;12045;60.214;24.724;2022-07-24T01:03:58;2.63;;;1.58;;
23728;SDS011;12045;60.214;24.724;2022-07-24T01:06:26;4.43;;;1.63;;
23728;SDS011;12045;60.214;24.724;2022-07-24T01:08:53;3.25;;;1.50;;
23728;SDS011;12045;60.214;24.724;2022-07-24T01:11:21;2.75;;;1.80;;
23728;SDS011;12045;60.214;24.724;2022-07-24T01:13:50;2.40;;;1.55;;
23728;SDS011;12045;60.214;24.724;2022-07-24T01:16:18;3.05;;;1.58;;
23728;SDS011;12045;60.214;24.724;2022-07-24T01:18:46;3.60;;;1.85;;
23728;SDS011;12045;60.214;24.724;2022-07-24T01:21:13;1.95;;;1.63;;
23728;SDS011;12045;60.214;24.724;2022-07-24T01:23:41;2.13;;;1.50;;
23728;SDS011;12045;60.214;24.724;2022-07-24T01:26:08;2.58;;;1.77;;
23728;SDS011;12045;60.214;24.724;2022-07-24T01:28:36;3.80;;;1.80;;
23728;SDS011;12045;60.214;24.724;2022-07-24T01:31:04;3.33;;;2.20;;
23728;SDS011;12045;60.214;24.724;2022-07-24T01:33:31;2.50;;;1.58;;
23728;SDS011;12045;60.214;24.724;2022-07-24T01:35:59;2.20;;;1.88;;
23728;SDS011;12045;60.214;24.724;2022-07-24T01:38:26;2.67;;;1.83;;
23728;SDS011;12045;60.214;24.724;2022-07-24T01:40:54;2.38;;;1.65;;
23728;SDS011;12045;60.214;24.724;2022-07-24T01:43:21;2.38;;;1.73;;
23728;SDS011;12045;60.214;24.724;2022-07-24T01:45:49;1.85;;;1.60;;
23728;SDS011;12045;60.214;24.724;2022-07-24T01:48:16;2.63;;;1.75;;
23728;SDS011;12045;60.214;24.724;2022-07-24T01:56:06;3.10;;;1.80;;
23728;SDS011;12045;60.214;24.724;2022-07-24T01:58:33;2.90;;;1.50;;
23728;SDS011;12045;60.214;24.724;2022-07-24T02:01:01;3.80;;;1.90;;
23728;SDS011;12045;60.214;24.724;2022-07-24T02:03:29;2.63;;;1.70;;
23728;SDS011;12045;60.214;24.724;2022-07-24T02:05:56;5.45;;;1.85;;
23728;SDS011;12045;60.214;24.724;2022-07-24T02:08:24;3.30;;;1.77;;
23728;SDS011;12045;60.214;24.724;2022-07-24T02:13:31;2.83;;;1.85;;
23728;SDS011;12045;60.214;24.724;2022-07-24T02:16:13;4.35;;;1.77;;
23728;SDS011;12045;60.214;24.724;2022-07-24T02:18:55;2.10;;;1.63;;
23728;SDS011;12045;60.214;24.724;2022-07-24T02:21:37;3.80;;;1.83;;
23728;SDS011;12045;60.214;24.724;2022-07-24T02:24:06;3.47;;;1.75;;
23728;SDS011;12045;60.214;24.724;2022-07-24T02:26:48;3.17;;;2.00;;
23728;SDS011;12045;60.214;24.724;2022-07-24T02:29:29;2.85;;;1.65;;
23728;SDS011;12045;60.214;24.724;2022-07-24T02:46:18;4.18;;;1.63;;
23728;SDS011;12045;60.214;24.724;2022-07-24T02:48:46;1.90;;;1.70;;
23728;SDS011;12045;60.214;24.724;2022-07-24T02:51:14;2.75;;;1.73;;
23728;SDS011;12045;60.214;24.724;2022-07-24T03:01:32;5.82;;;1.88;;
23728;SDS011;12045;60.214;24.724;2022-07-24T03:04:00;3.60;;;1.73;;
23728;SDS011;12045;60.214;24.724;2022-07-24T03:06:27;3.85;;;1.80;;
23728;SDS011;12045;60.214;24.724;2022-07-24T03:08:55;2.47;;;1.90;;
23728;SDS011;12045;60.214;24.724;2022-07-24T03:22:12;2.72;;;2.33;;
23728;SDS011;12045;60.214;24.724;2022-07-24T03:24:54;6.07;;;1.92;;
23728;SDS011;12045;60.214;24.724;2022-07-24T03:27:36;4.38;;;2.00;;
23728;SDS011;12045;60.214;24.724;2022-07-24T03:30:06;3.47;;;1.90;;
23728;SDS011;12045;60.214;24.724;2022-07-24T03:32:48;4.43;;;2.10;;
23728;SDS011;12045;60.214;24.724;2022-07-24T03:35:31;3.45;;;1.88;;
23728;SDS011;12045;60.214;24.724;2022-07-24T03:38:00;2.40;;;1.70;;
23728;SDS011;12045;60.214;24.724;2022-07-24T03:40:43;4.20;;;1.90;;
23728;SDS011;12045;60.214;24.724;2022-07-24T03:43:24;2.33;;;1.92;;
23728;SDS011;12045;60.214;24.724;2022-07-24T03:46:05;5.95;;;2.00;;
23728;SDS011;12045;60.214;24.724;2022-07-24T03:48:38;3.00;;;1.90;;
23728;SDS011;12045;60.214;24.724;2022-07-24T03:51:21;4.65;;;1.65;;
23728;SDS011;12045;60.214;24.724;2022-07-24T03:54:19;2.42;;;1.83;;
23728;SDS011;12045;60.214;24.724;2022-07-24T03:56:57;3.35;;;2.15;;
23728;SDS011;12045;60.214;24.724;2022-07-24T03:59:29;2.17;;;1.98;;
23728;SDS011;12045;60.214;24.724;2022-07-24T04:02:43;5.88;;;1.80;;
23728;SDS011;12045;60.214;24.724;2022-07-24T04:05:13;2.58;;;1.75;;
23728;SDS011;12045;60.214;24.724;2022-07-24T04:07:40;4.25;;;2.08;;
23728;SDS011;12045;60.214;24.724;2022-07-24T04:10:08;1.98;;;1.70;;
23728;SDS011;12045;60.214;24.724;2022-07-24T04:12:36;4.22;;;1.80;;
23728;SDS011;12045;60.214;24.724;2022-07-24T04:15:03;3.08;;;1.85;;
23728;SDS011;12045;60.214;24.724;2022-07-24T04:17:31;2.75;;;1.98;;
23728;SDS011;12045;60.214;24.724;2022-07-24T04:19:59;5.60;;;2.30;;
23728;SDS011;12045;60.214;24.724;2022-07-24T04:24:56;2.33;;;1.88;;
23728;SDS011;12045;60.214;24.724;2022-07-24T04:27:24;5.20;;;1.95;;
23728;SDS011;12045;60.214;24.724;2022-07-24T04:29:51;3.85;;;1.90;;
23728;SDS011;12045;60.214;24.724;2022-07-24T04:32:19;3.70;;;2.03;;
23728;SDS011;12045;60.214;24.724;2022-07-24T04:34:47;5.55;;;1.73;;
23728;SDS011;12045;60.214;24.724;2022-07-24T04:37:14;3.13;;;2.17;;
23728;SDS011;12045;60.214;24.724;2022-07-24T04:39:44;2.30;;;1.70;;
23728;SDS011;12045;60.214;24.724;2022-07-24T04:42:11;3.63;;;1.80;;
23728;SDS011;12045;60.214;24.724;2022-07-24T04:44:39;2.65;;;1.67;;
23728;SDS011;12045;60.214;24.724;2022-07-24T04:53:51;4.13;;;1.70;;
23728;SDS011;12045;60.214;24.724;2022-07-24T04:56:21;2.20;;;1.83;;
23728;SDS011;12045;60.214;24.724;2022-07-24T04:58:49;3.92;;;1.80;;
23728;SDS011;12045;60.214;24.724;2022-07-24T05:01:16;4.15;;;1.80;;
23728;SDS011;12045;60.214;24.724;2022-07-24T05:03:44;2.30;;;1.50;;
23728;SDS011;12045;60.214;24.724;2022-07-24T05:06:12;2.63;;;1.63;;
23728;SDS011;12045;60.214;24.724;2022-07-24T05:21:17;2.33;;;1.67;;
23728;SDS011;12045;60.214;24.724;2022-07-24T05:23:45;3.72;;;1.70;;
23728;SDS011;12045;60.214;24.724;2022-07-24T05:26:12;2.13;;;1.50;;
23728;SDS011;12045;60.214;24.724;2022-07-24T05:28:41;3.45;;;1.67;;
23728;SDS011;12045;60.214;24.724;2022-07-24T05:39:09;2.08;;;1.40;;
23728;SDS011;12045;60.214;24.724;2022-07-24T05:41:51;2.15;;;1.50;;
23728;SDS011;12045;60.214;24.724;2022-07-24T05:44:32;2.25;;;1.40;;
23728;SDS011;12045;60.214;24.724;2022-07-24T05:46:59;3.03;;;1.67;;
23728;SDS011;12045;60.214;24.724;2022-07-24T05:49:27;3.97;;;1.50;;
23728;SDS011;12045;60.214;24.724;2022-07-24T05:51:55;2.95;;;1.90;;
23728;SDS011;12045;60.214;24.724;2022-07-24T05:54:22;1.92;;;1.63;;
23728;SDS011;12045;60.214;24.724;2022-07-24T05:56:50;2.00;;;1.60;;
23728;SDS011;12045;60.214;24.724;2022-07-24T05:59:17;2.30;;;1.52;;
23728;SDS011;12045;60.214;24.724;2022-07-24T06:01:45;3.05;;;1.42;;
23728;SDS011;12045;60.214;24.724;2022-07-24T06:04:12;2.08;;;1.50;;
23728;SDS011;12045;60.214;24.724;2022-07-24T06:06:40;2.42;;;1.50;;
23728;SDS011;12045;60.214;24.724;2022-07-24T06:50:14;1.75;;;1.42;;
23728;SDS011;12045;60.214;24.724;2022-07-24T06:52:57;2.00;;;1.40;;
23728;SDS011;12045;60.214;24.724;2022-07-24T06:55:40;3.05;;;1.40;;
23728;SDS011;12045;60.214;24.724;2022-07-24T06:58:22;2.70;;;1.65;;
23728;SDS011;12045;60.214;24.724;2022-07-24T07:00:53;1.65;;;1.17;;
23728;SDS011;12045;60.214;24.724;2022-07-24T07:16:19;2.85;;;1.48;;
23728;SDS011;12045;60.214;24.724;2022-07-24T07:19:03;1.20;;;1.10;;
23728;SDS011;12045;60.214;24.724;2022-07-24T07:24:05;1.60;;;1.08;;
23728;SDS011;12045;60.214;24.724;2022-07-24T07:26:33;0.93;;;0.85;;
23728;SDS011;12045;60.214;24.724;2022-07-24T07:31:40;1.23;;;0.98;;
23728;SDS011;12045;60.214;24.724;2022-07-24T07:36:37;1.20;;;1.10;;
23728;SDS011;12045;60.214;24.724;2022-07-24T07:39:04;1.00;;;0.90;;
23728;SDS011;12045;60.214;24.724;2022-07-24T07:41:33;1.20;;;1.10;;
23728;SDS011;12045;60.214;24.724;2022-07-24T07:44:00;1.73;;;1.17;;
23728;SDS011;12045;60.214;24.724;2022-07-24T07:46:29;1.35;;;1.00;;
23728;SDS011;12045;60.214;24.724;2022-07-24T07:48:56;1.92;;;1.30;;
23728;SDS011;12045;60.214;24.724;2022-07-24T07:51:24;1.77;;;0.90;;
23728;SDS011;12045;60.214;24.724;2022-07-24T07:53:52;1.30;;;1.20;;
23728;SDS011;12045;60.214;24.724;2022-07-24T07:56:20;3.03;;;1.08;;
23728;SDS011;12045;60.214;24.724;2022-07-24T08:12:25;2.40;;;1.42;;
23728;SDS011;12045;60.214;24.724;2022-07-24T08:14:53;1.67;;;1.30;;
23728;SDS011;12045;60.214;24.724;2022-07-24T08:17:23;2.28;;;1.10;;
23728;SDS011;12045;60.214;24.724;2022-07-24T08:19:51;1.40;;;1.00;;
23728;SDS011;12045;60.214;24.724;2022-07-24T08:22:21;0.85;;;0.85;;
23728;SDS011;12045;60.214;24.724;2022-07-24T08:24:48;1.67;;;1.20;;
23728;SDS011;12045;60.214;24.724;2022-07-24T08:27:18;1.60;;;1.17;;
23728;SDS011;12045;60.214;24.724;2022-07-24T08:29:46;1.02;;;0.90;;
23728;SDS011;12045;60.214;24.724;2022-07-24T08:32:15;1.60;;;1.08;;
23728;SDS011;12045;60.214;24.724;2022-07-24T08:34:59;1.77;;;1.13;;
23728;SDS011;12045;60.214;24.724;2022-07-24T08:37:27;1.90;;;1.20;;
23728;SDS011;12045;60.214;24.724;2022-07-24T08:40:07;1.20;;;1.10;;
23728;SDS011;12045;60.214;24.724;2022-07-24T08:42:50;1.20;;;1.10;;
23728;SDS011;12045;60.214;24.724;2022-07-24T08:45:34;1.73;;;1.10;;
23728;SDS011;12045;60.214;24.724;2022-07-24T08:48:20;5.40;;;1.30;;
23728;SDS011;12045;60.214;24.724;2022-07-24T08:51:04;1.30;;;1.20;;
23728;SDS011;12045;60.214;24.724;2022-07-24T08:53:35;2.05;;;1.13;;
23728;SDS011;12045;60.214;24.724;2022-07-24T08:56:04;2.92;;;1.25;;
23728;SDS011;12045;60.214;24.724;2022-07-24T08:58:37;1.80;;;1.10;;
23728;SDS011;12045;60.214;24.724;2022-07-24T09:01:06;2.60;;;1.00;;
23728;SDS011;12045;60.214;24.724;2022-07-24T09:03:43;0.90;;;0.90;;
23728;SDS011;12045;60.214;24.724;2022-07-24T09:06:26;1.40;;;1.10;;
23728;SDS011;12045;60.214;24.724;2022-07-24T09:09:09;1.23;;;1.13;;
23728;SDS011;12045;60.214;24.724;2022-07-24T09:11:46;1.40;;;1.10;;
23728;SDS011;12045;60.214;24.724;2022-07-24T09:14:14;1.40;;;1.10;;
23728;SDS011;12045;60.214;24.724;2022-07-24T09:17:07;1.40;;;1.30;;
23728;SDS011;12045;60.214;24.724;2022-07-24T09:19:59;1.67;;;1.40;;
23728;SDS011;12045;60.214;24.724;2022-07-24T09:38:43;1.00;;;1.00;;
23728;SDS011;12045;60.214;24.724;2022-07-24T09:47:52;2.00;;;1.33;;
23728;SDS011;12045;60.214;24.724;2022-07-24T09:50:54;1.42;;;1.27;;
23728;SDS011;12045;60.214;24.724;2022-07-24T09:53:37;1.98;;;1.27;;
23728;SDS011;12045;60.214;24.724;2022-07-24T09:59:40;1.63;;;1.27;;
23728;SDS011;12045;60.214;24.724;2022-07-24T10:02:15;1.33;;;1.20;;
23728;SDS011;12045;60.214;24.724;2022-07-24T10:04:44;2.22;;;1.30;;
23728;SDS011;12045;60.214;24.724;2022-07-24T10:15:31;2.13;;;1.50;;
23728;SDS011;12045;60.214;24.724;2022-07-24T10:18:14;3.53;;;1.35;;
23728;SDS011;12045;60.214;24.724;2022-07-24T10:20:47;1.65;;;1.25;;
23728;SDS011;12045;60.214;24.724;2022-07-24T10:23:25;2.35;;;1.20;;
23728;SDS011;12045;60.214;24.724;2022-07-24T10:26:06;1.85;;;1.55;;
23728;SDS011;12045;60.214;24.724;2022-07-24T10:28:43;1.75;;;1.50;;
23728;SDS011;12045;60.214;24.724;2022-07-24T10:31:13;1.98;;;1.40;;
23728;SDS011;12045;60.214;24.724;2022-07-24T10:33:45;1.65;;;1.40;;
23728;SDS011;12045;60.214;24.724;2022-07-24T10:36:29;1.33;;;1.23;;
23728;SDS011;12045;60.214;24.724;2022-07-24T10:39:29;2.35;;;1.70;;
23728;SDS011;12045;60.214;24.724;2022-07-24T10:42:20;2.10;;;1.88;;
23728;SDS011;12045;60.214;24.724;2022-07-24T11:11:11;2.33;;;2.13;;
23728;SDS011;12045;60.214;24.724;2022-07-24T11:13:41;2.53;;;2.08;;
23728;SDS011;12045;60.214;24.724;2022-07-24T11:32:41;2.65;;;2.45;;
23728;SDS011;12045;60.214;24.724;2022-07-24T11:35:26;3.33;;;2.83;;
23728;SDS011;12045;60.214;24.724;2022-07-24T11:38:14;2.60;;;2.40;;
23728;SDS011;12045;60.214;24.724;2022-07-24T11:40:43;2.47;;;2.28;;
23728;SDS011;12045;60.214;24.724;2022-07-24T11:43:11;2.60;;;2.40;;
23728;SDS011;12045;60.214;24.724;2022-07-24T11:45:50;2.40;;;2.20;;
23728;SDS011;12045;60.214;24.724;2022-07-24T11:48:19;2.35;;;2.15;;
23728;SDS011;12045;60.214;24.724;2022-07-24T11:59:26;2.67;;;2.47;;
23728;SDS011;12045;60.214;24.724;2022-07-24T12:02:09;2.67;;;2.47;;
23728;SDS011;12045;60.214;24.724;2022-07-24T12:04:38;2.90;;;2.70;;
23728;SDS011;12045;60.214;24.724;2022-07-24T12:07:30;2.67;;;2.40;;
23728;SDS011;12045;60.214;24.724;2022-07-24T12:10:11;3.45;;;2.70;;
23728;SDS011;12045;60.214;24.724;2022-07-24T12:12:46;3.10;;;2.80;;
23728;SDS011;12045;60.214;24.724;2022-07-24T12:15:18;3.55;;;2.53;;
23728;SDS011;12045;60.214;24.724;2022-07-24T12:18:02;2.65;;;2.45;;
23728;SDS011;12045;60.214;24.724;2022-07-24T12:20:41;2.70;;;2.50;;
23728;SDS011;12045;60.214;24.724;2022-07-24T12:23:14;2.92;;;2.47;;
23728;SDS011;12045;60.214;24.724;2022-07-24T12:25:46;2.60;;;2.20;;
23728;SDS011;12045;60.214;24.724;2022-07-24T12:40:00;2.13;;;1.88;;
23728;SDS011;12045;60.214;24.724;2022-07-24T13:01:47;2.65;;;1.90;;
23728;SDS011;12045;60.214;24.724;2022-07-24T13:04:19;4.15;;;2.00;;
23728;SDS011;12045;60.214;24.724;2022-07-24T13:07:03;3.63;;;2.05;;
23728;SDS011;12045;60.214;24.724;2022-07-24T13:09:38;2.40;;;2.20;;
23728;SDS011;12045;60.214;24.724;2022-07-24T13:12:21;3.78;;;2.20;;
23728;SDS011;12045;60.214;24.724;2022-07-24T13:14:51;2.40;;;2.20;;
23728;SDS011;12045;60.214;24.724;2022-07-24T13:17:36;4.55;;;2.42;;
23728;SDS011;12045;60.214;24.724;2022-07-24T13:23:11;2.92;;;2.70;;
23728;SDS011;12045;60.214;24.724;2022-07-24T13:34:07;3.50;;;3.20;;
23728;SDS011;12045;60.214;24.724;2022-07-24T13:37:17;3.42;;;3.13;;
23728;SDS011;12045;60.214;24.724;2022-07-24T13:45:19;4.65;;;4.25;;
23728;SDS011;12045;60.214;24.724;2022-07-24T13:48:03;4.47;;;4.07;;
23728;SDS011;12045;60.214;24.724;2022-07-24T14:46:54;5.22;;;4.70;;
23728;SDS011;12045;60.214;24.724;2022-07-24T14:49:50;4.50;;;4.10;;
23728;SDS011;12045;60.214;24.724;2022-07-24T14:52:51;4.20;;;3.80;;
23728;SDS011;12045;60.214;24.724;2022-07-24T15:17:56;5.05;;;3.60;;
23728;SDS011;12045;60.214;24.724;2022-07-24T15:20:24;3.40;;;3.10;;
23728;SDS011;12045;60.214;24.724;2022-07-24T15:33:44;5.72;;;4.28;;
23728;SDS011;12045;60.214;24.724;2022-07-24T16:17:19;4.70;;;3.90;;
23728;SDS011;12045;60.214;24.724;2022-07-24T16:19:50;4.00;;;3.60;;
23728;SDS011;12045;60.214;24.724;2022-07-24T16:22:21;4.13;;;3.70;;
23728;SDS011;12045;60.214;24.724;2022-07-24T16:24:48;4.75;;;3.50;;
23728;SDS011;12045;60.214;24.724;2022-07-24T16:27:18;4.22;;;3.83;;
23728;SDS011;12045;60.214;24.724;2022-07-24T16:29:45;4.20;;;3.80;;
23728;SDS011;12045;60.214;24.724;2022-07-24T16:32:17;4.63;;;4.22;;
23728;SDS011;12045;60.214;24.724;2022-07-24T16:34:54;4.22;;;3.83;;
23728;SDS011;12045;60.214;24.724;2022-07-24T16:37:23;5.38;;;3.75;;
23728;SDS011;12045;60.214;24.724;2022-07-24T16:39:52;3.80;;;3.50;;
23728;SDS011;12045;60.214;24.724;2022-07-24T16:42:21;4.25;;;3.85;;
23728;SDS011;12045;60.214;24.724;2022-07-24T16:44:50;4.30;;;3.90;;
23728;SDS011;12045;60.214;24.724;2022-07-24T16:47:38;4.55;;;4.15;;
23728;SDS011;12045;60.214;24.724;2022-07-24T16:50:06;5.25;;;4.28;;
23728;SDS011;12045;60.214;24.724;2022-07-24T16:52:47;4.13;;;3.83;;
23728;SDS011;12045;60.214;24.724;2022-07-24T16:55:19;4.15;;;3.75;;
23728;SDS011;12045;60.214;24.724;2022-07-24T16:57:53;4.32;;;3.92;;
23728;SDS011;12045;60.214;24.724;2022-07-24T17:00:36;4.50;;;4.10;;
23728;SDS011;12045;60.214;24.724;2022-07-24T17:03:04;3.88;;;3.58;;
23728;SDS011;12045;60.214;24.724;2022-07-24T17:05:32;4.05;;;3.70;;
23728;SDS011;12045;60.214;24.724;2022-07-24T17:08:01;3.97;;;3.67;;
23728;SDS011;12045;60.214;24.724;2022-07-24T17:10:32;4.05;;;3.72;;
23728;SDS011;12045;60.214;24.724;2022-07-24T17:13:11;4.22;;;3.83;;
23728;SDS011;12045;60.214;24.724;2022-07-24T17:15:40;3.85;;;3.55;;
23728;SDS011;12045;60.214;24.724;2022-07-24T17:18:22;4.38;;;3.92;;
23728;SDS011;12045;60.214;24.724;2022-07-24T17:20:50;4.03;;;3.63;;
23728;SDS011;12045;60.214;24.724;2022-07-24T17:23:27;6.25;;;3.85;;
23728;SDS011;12045;60.214;24.724;2022-07-24T17:25:55;3.97;;;3.67;;
23728;SDS011;12045;60.214;24.724;2022-07-24T17:28:24;3.80;;;3.50;;
23728;SDS011;12045;60.214;24.724;2022-07-24T17:30:52;4.13;;;3.67;;
23728;SDS011;12045;60.214;24.724;2022-07-24T17:33:28;3.88;;;3.58;;
23728;SDS011;12045;60.214;24.724;2022-07-24T17:36:11;3.70;;;3.40;;
23728;SDS011;12045;60.214;24.724;2022-07-24T17:38:39;3.70;;;3.40;;
23728;SDS011;12045;60.214;24.724;2022-07-24T17:46:56;4.00;;;3.70;;
23728;SDS011;12045;60.214;24.724;2022-07-24T17:49:37;4.32;;;3.90;;
23728;SDS011;12045;60.214;24.724;2022-07-24T17:52:05;3.60;;;3.30;;
23728;SDS011;12045;60.214;24.724;2022-07-24T17:54:33;3.90;;;3.60;;
23728;SDS011;12045;60.214;24.724;2022-07-24T17:57:02;4.03;;;3.72;;
23728;SDS011;12045;60.214;24.724;2022-07-24T17:59:30;3.88;;;3.55;;
23728;SDS011;12045;60.214;24.724;2022-07-24T18:02:01;4.30;;;3.90;;
23728;SDS011;12045;60.214;24.724;2022-07-24T18:04:28;3.97;;;3.58;;
23728;SDS011;12045;60.214;24.724;2022-07-24T18:06:57;4.00;;;3.70;;
23728;SDS011;12045;60.214;24.724;2022-07-24T18:09:28;4.28;;;3.45;;
23728;SDS011;12045;60.214;24.724;2022-07-24T18:12:09;3.70;;;3.40;;
23728;SDS011;12045;60.214;24.724;2022-07-24T18:14:38;5.03;;;3.70;;
23728;SDS011;12045;60.214;24.724;2022-07-24T18:17:19;3.67;;;3.38;;
23728;SDS011;12045;60.214;24.724;2022-07-24T18:19:52;3.92;;;3.63;;
23728;SDS011;12045;60.214;24.724;2022-07-24T18:22:20;3.88;;;3.58;;
23728;SDS011;12045;60.214;24.724;2022-07-24T18:24:48;4.00;;;3.60;;
23728;SDS011;12045;60.214;24.724;2022-07-24T18:27:20;4.32;;;3.40;;
23728;SDS011;12045;60.214;24.724;2022-07-24T18:29:49;4.68;;;3.78;;
23728;SDS011;12045;60.214;24.724;2022-07-24T18:32:16;4.00;;;3.70;;
23728;SDS011;12045;60.214;24.724;2022-07-24T18:34:45;3.92;;;3.53;;
23728;SDS011;12045;60.214;24.724;2022-07-24T18:37:14;4.50;;;4.10;;
23728;SDS011;12045;60.214;24.724;2022-07-24T18:39:43;4.10;;;3.80;;
23728;SDS011;12045;60.214;24.724;2022-07-24T18:42:10;4.47;;;4.07;;
23728;SDS011;12045;60.214;24.724;2022-07-24T18:44:52;4.28;;;3.88;;
23728;SDS011;12045;60.214;24.724;2022-07-24T18:47:28;5.68;;;3.60;;
23728;SDS011;12045;60.214;24.724;2022-07-24T18:49:57;4.55;;;4.15;;
23728;SDS011;12045;60.214;24.724;2022-07-24T18:52:27;4.32;;;4.03;;
23728;SDS011;12045;60.214;24.724;2022-07-24T18:54:54;4.68;;;4.20;;
23728;SDS011;12045;60.214;24.724;2022-07-24T18:57:26;4.10;;;3.80;;
23728;SDS011;12045;60.214;24.724;2022-07-24T18:59:54;4.38;;;4.07;;
23728;SDS011;12045;60.214;24.724;2022-07-24T19:02:22;5.05;;;4.07;;
23728;SDS011;12045;60.214;24.724;2022-07-24T19:04:51;4.50;;;4.10;;
23728;SDS011;12045;60.214;24.724;2022-07-24T19:07:32;4.40;;;4.07;;
23728;SDS011;12045;60.214;24.724;2022-07-24T19:10:04;5.57;;;4.20;;
23728;SDS011;12045;60.214;24.724;2022-07-24T19:12:33;4.80;;;4.18;;
23728;SDS011;12045;60.214;24.724;2022-07-24T19:15:01;4.38;;;3.97;;
23728;SDS011;12045;60.214;24.724;2022-07-24T19:17:30;4.93;;;3.88;;
23728;SDS011;12045;60.214;24.724;2022-07-24T19:20:12;4.35;;;4.00;;
23728;SDS011;12045;60.214;24.724;2022-07-24T19:22:42;7.05;;;4.28;;
23728;SDS011;12045;60.214;24.724;2022-07-24T19:25:10;4.70;;;4.30;;
23728;SDS011;12045;60.214;24.724;2022-07-24T19:27:44;5.00;;;4.60;;
23728;SDS011;12045;60.214;24.724;2022-07-24T19:30:25;4.70;;;4.30;;
23728;SDS011;12045;60.214;24.724;2022-07-24T19:33:05;4.95;;;4.55;;
23728;SDS011;12045;60.214;24.724;2022-07-24T19:35:43;4.80;;;4.40;;
23728;SDS011;12045;60.214;24.724;2022-07-24T19:38:11;4.90;;;4.50;;
23728;SDS011;12045;60.214;24.724;2022-07-24T19:40:41;7.32;;;4.60;;
23728;SDS011;12045;60.214;24.724;2022-07-24T19:43:23;5.15;;;4.70;;
23728;SDS011;12045;60.214;24.724;2022-07-24T19:45:55;6.03;;;4.68;;
23728;SDS011;12045;60.214;24.724;2022-07-24T19:48:25;4.90;;;4.50;;
23728;SDS011;12045;60.214;24.724;2022-07-24T19:50:55;4.72;;;4.32;;
23728;SDS011;12045;60.214;24.724;2022-07-24T19:53:47;6.13;;;4.60;;
23728;SDS011;12045;60.214;24.724;2022-07-24T19:56:15;4.85;;;4.45;;
23728;SDS011;12045;60.214;24.724;2022-07-24T19:58:56;4.68;;;4.22;;
23728;SDS011;12045;60.214;24.724;2022-07-24T20:01:24;4.72;;;4.32;;
23728;SDS011;12045;60.214;24.724;2022-07-24T20:03:59;4.35;;;3.95;;
23728;SDS011;12045;60.214;24.724;2022-07-24T20:06:28;4.60;;;4.20;;
23728;SDS011;12045;60.214;24.724;2022-07-24T20:09:04;6.03;;;3.95;;
23728;SDS011;12045;60.214;24.724;2022-07-24T20:11:31;4.72;;;4.32;;
23728;SDS011;12045;60.214;24.724;2022-07-24T20:14:03;4.38;;;3.80;;
23728;SDS011;12045;60.214;24.724;2022-07-24T20:16:39;5.45;;;4.32;;
23728;SDS011;12045;60.214;24.724;2022-07-24T20:19:09;4.25;;;3.85;;
23728;SDS011;12045;60.214;24.724;2022-07-24T20:21:38;6.60;;;3.80;;
23728;SDS011;12045;60.214;24.724;2022-07-24T20:24:08;4.70;;;4.30;;
23728;SDS011;12045;60.214;24.724;2022-07-24T20:26:49;4.00;;;3.70;;
23728;SDS011;12045;60.214;24.724;2022-07-24T20:29:17;4.10;;;3.55;;
23728;SDS011;12045;60.214;24.724;2022-07-24T20:31:46;4.05;;;3.70;;
23728;SDS011;12045;60.214;24.724;2022-07-24T20:34:23;4.45;;;3.38;;
23728;SDS011;12045;60.214;24.724;2022-07-24T20:36:51;5.00;;;3.83;;
23728;SDS011;12045;60.214;24.724;2022-07-24T20:39:19;3.60;;;3.17;;
23728;SDS011;12045;60.214;24.724;2022-07-24T20:41:47;4.43;;;3.50;;
23728;SDS011;12045;60.214;24.724;2022-07-24T20:44:15;4.65;;;3.33;;
23728;SDS011;12045;60.214;24.724;2022-07-24T20:46:56;3.50;;;3.20;;
23728;SDS011;12045;60.214;24.724;2022-07-24T20:49:27;3.53;;;3.20;;
23728;SDS011;12045;60.214;24.724;2022-07-24T20:51:56;4.72;;;3.20;;
23728;SDS011;12045;60.214;24.724;2022-07-24T20:54:31;3.50;;;3.20;;
23728;SDS011;12045;60.214;24.724;2022-07-24T20:56:59;3.20;;;3.00;;
23728;SDS011;12045;60.214;24.724;2022-07-24T20:59:27;4.03;;;3.08;;
23728;SDS011;12045;60.214;24.724;2022-07-24T21:02:09;3.05;;;2.85;;
23728;SDS011;12045;60.214;24.724;2022-07-24T21:04:41;3.22;;;2.90;;
23728;SDS011;12045;60.214;24.724;2022-07-24T21:07:25;4.22;;;3.17;;
23728;SDS011;12045;60.214;24.724;2022-07-24T21:09:53;3.72;;;2.90;;
23728;SDS011;12045;60.214;24.724;2022-07-24T21:12:29;4.22;;;3.05;;
23728;SDS011;12045;60.214;24.724;2022-07-24T21:15:13;4.07;;;3.10;;
23728;SDS011;12045;60.214;24.724;2022-07-24T21:17:56;3.38;;;3.10;;
23728;SDS011;12045;60.214;24.724;2022-07-24T21:20:39;3.83;;;2.90;;
23728;SDS011;12045;60.214;24.724;2022-07-24T21:23:21;3.22;;;2.70;;
23728;SDS011;12045;60.214;24.724;2022-07-24T21:26:02;3.45;;;3.15;;
23728;SDS011;12045;60.214;24.724;2022-07-24T21:28:51;3.10;;;2.90;;
23728;SDS011;12045;60.214;24.724;2022-07-24T21:31:33;3.67;;;3.15;;
23728;SDS011;12045;60.214;24.724;2022-07-24T21:34:06;3.60;;;3.30;;
23728;SDS011;12045;60.214;24.724;2022-07-24T21:36:48;3.72;;;3.28;;
23728;SDS011;12045;60.214;24.724;2022-07-24T21:39:31;5.47;;;3.22;;
23728;SDS011;12045;60.214;24.724;2022-07-24T21:42:00;3.33;;;2.85;;
23728;SDS011;12045;60.214;24.724;2022-07-24T21:44:44;3.47;;;3.17;;
23728;SDS011;12045;60.214;24.724;2022-07-24T21:47:12;3.58;;;2.90;;
23728;SDS011;12045;60.214;24.724;2022-07-24T21:49:52;3.08;;;2.88;;
23728;SDS011;12045;60.214;24.724;2022-07-24T21:52:40;3.10;;;2.80;;
23728;SDS011;12045;60.214;24.724;2022-07-24T21:55:22;3.40;;;3.00;;
23728;SDS011;12045;60.214;24.724;2022-07-24T21:57:56;3.72;;;2.83;;
23728;SDS011;12045;60.214;24.724;2022-07-24T22:00:49;3.10;;;2.90;;
23728;SDS011;12045;60.214;24.724;2022-07-24T22:03:25;3.20;;;2.90;;
23728;SDS011;12045;60.214;24.724;2022-07-24T22:06:00;3.10;;;2.80;;
23728;SDS011;12045;60.214;24.724;2022-07-24T22:08:42;3.10;;;2.80;;
23728;SDS011;12045;60.214;24.724;2022-07-24T22:11:25;5.07;;;2.78;;
23728;SDS011;12045;60.214;24.724;2022-07-24T22:14:08;3.17;;;2.88;;
23728;SDS011;12045;60.214;24.724;2022-07-24T22:16:49;3.88;;;2.83;;
23728;SDS011;12045;60.214;24.724;2022-07-24T22:19:31;3.90;;;2.80;;